createdAt,value
2023-04-06T00:00:41.304Z,101740.63
2023-04-06T00:07:23.554Z,101738.91
2023-04-06T00:14:24.596Z,101736.28
2023-04-06T00:21:26.860Z,101737.16
2023-04-06T00:28:27.911Z,101737.16
2023-04-06T00:35:28.814Z,101730.13
2023-04-06T00:42:14.614Z,101730.91
2023-04-06T00:49:15.587Z,101728.22
2023-04-06T00:55:57.760Z,101719.56
2023-04-06T01:02:59.557Z,101717.75
2023-04-06T01:09:49.980Z,101719.41
2023-04-06T01:17:01.680Z,101719.06
2023-04-06T01:23:47.859Z,101707.47
2023-04-06T01:30:54.797Z,101703.84
2023-04-06T01:38:14.715Z,101706.75
2023-04-06T01:44:57.000Z,101712.38
2023-04-06T01:51:40.156Z,101712.88
2023-04-06T01:58:44.809Z,101709.13
2023-04-06T02:05:49.335Z,101713.28
2023-04-06T02:13:02.035Z,101720.09
2023-04-06T02:20:03.334Z,101714.53
2023-04-06T02:27:04.389Z,101720.41
2023-04-06T02:34:05.499Z,101729.56
2023-04-06T02:40:49.212Z,101721.50
2023-04-06T02:47:36.205Z,101721.31
2023-04-06T02:54:38.084Z,101716.78
2023-04-06T03:01:21.258Z,101724.28
2023-04-06T03:08:09.783Z,101716.91
2023-04-06T03:14:57.370Z,101717.88
2023-04-06T03:21:39.794Z,101726.53
2023-04-06T03:28:42.116Z,101739.09
2023-04-06T03:35:25.652Z,101742.81
2023-04-06T03:42:27.759Z,101740.41
2023-04-06T03:49:34.943Z,101749.59
2023-04-06T03:56:17.609Z,101744.22
2023-04-06T04:03:00.485Z,101753.56
2023-04-06T04:09:42.707Z,101755.84
2023-04-06T04:16:43.941Z,101753.53
2023-04-06T04:23:26.175Z,101757.59
2023-04-06T04:30:27.228Z,101755.88
2023-04-06T04:37:28.192Z,101762.03
2023-04-06T04:44:12.106Z,101759.34
2023-04-06T04:51:12.978Z,101761.19
2023-04-06T04:58:36.943Z,101765.75
2023-04-06T05:05:38.022Z,101767.81
2023-04-06T05:12:22.299Z,101769.16
2023-04-06T05:19:41.313Z,101773.25
2023-04-06T05:26:42.772Z,101780.91
2023-04-06T05:33:34.345Z,101779.84
2023-04-06T05:40:45.601Z,101770.38
2023-04-06T05:47:50.225Z,101774.66
2023-04-06T05:54:40.565Z,101779.72
2023-04-06T06:01:22.904Z,101765.75
2023-04-06T06:08:24.046Z,101772.63
2023-04-06T06:15:08.379Z,101770.72
2023-04-06T06:21:54.752Z,101766.84
2023-04-06T06:28:56.258Z,101776.44
2023-04-06T06:35:58.039Z,101769.69
2023-04-06T06:42:58.786Z,101773.44
2023-04-06T06:50:08.434Z,101771.91
2023-04-06T06:57:09.324Z,101770.47
2023-04-06T07:04:10.531Z,101771.25
2023-04-06T07:11:11.707Z,101774.00
2023-04-06T07:18:13.302Z,101762.91
2023-04-06T07:25:14.080Z,101767.94
2023-04-06T07:32:15.912Z,101765.22
2023-04-06T07:39:16.811Z,101771.34
2023-04-06T07:46:17.821Z,101762.72
2023-04-06T07:53:19.198Z,101759.41
2023-04-06T08:00:21.931Z,101755.59
2023-04-06T08:07:22.852Z,101764.66
2023-04-06T08:14:23.873Z,101751.72
2023-04-06T08:21:06.228Z,101751.97
2023-04-06T08:27:48.437Z,101749.94
2023-04-06T08:34:30.788Z,101752.84
2023-04-06T08:41:14.760Z,101748.53
2023-04-06T08:48:00.055Z,101743.56
2023-04-06T08:54:42.310Z,101749.09
2023-04-06T09:01:28.100Z,101744.84
2023-04-06T09:08:10.295Z,101755.94
2023-04-06T09:14:52.588Z,101752.13
2023-04-06T09:21:35.304Z,101748.16
2023-04-06T09:28:17.619Z,101736.50
2023-04-06T09:35:09.900Z,101735.72
2023-04-06T09:41:55.533Z,101741.16
2023-04-06T09:48:38.914Z,101739.59
2023-04-06T09:55:36.255Z,101732.06
2023-04-06T10:02:46.876Z,101733.28
2023-04-06T10:09:36.569Z,101743.75
2023-04-06T10:16:19.318Z,101736.75
2023-04-06T10:23:27.798Z,101742.91
2023-04-06T10:30:10.190Z,101736.97
2023-04-06T10:36:52.413Z,101735.50
2023-04-06T10:43:40.140Z,101724.38
2023-04-06T10:50:23.366Z,101722.84
2023-04-06T10:57:05.610Z,101714.22
2023-04-06T11:03:50.964Z,101714.91
2023-04-06T11:10:33.141Z,101702.47
2023-04-06T11:17:15.451Z,101702.63
2023-04-06T11:24:22.531Z,101706.38
2023-04-06T11:31:04.839Z,101693.34
2023-04-06T11:37:47.126Z,101692.72
2023-04-06T11:44:41.022Z,101690.13
2023-04-06T11:51:24.956Z,101698.69
2023-04-06T11:58:08.132Z,101682.03
2023-04-06T12:04:50.732Z,101679.56
2023-04-06T12:11:33.028Z,101671.91
2023-04-06T12:18:15.587Z,101651.22
2023-04-06T12:24:57.799Z,101657.50
2023-04-06T12:31:41.931Z,101648.69
2023-04-06T12:38:24.231Z,101643.31
2023-04-06T12:45:07.464Z,101646.69
2023-04-06T12:51:49.818Z,101638.75
2023-04-06T12:58:32.290Z,101642.16
2023-04-06T13:05:19.962Z,101634.31
2023-04-06T13:12:02.812Z,101634.94
2023-04-06T13:18:45.009Z,101628.66
2023-04-06T13:25:27.318Z,101629.31
2023-04-06T13:32:11.357Z,101619.53
2023-04-06T13:38:54.361Z,101616.78
2023-04-06T13:45:36.722Z,101606.97
2023-04-06T13:52:19.525Z,101601.50
2023-04-06T13:59:01.694Z,101606.63
2023-04-06T14:05:44.077Z,101602.34
2023-04-06T14:12:26.253Z,101594.38
2023-04-06T14:19:08.513Z,101598.44
2023-04-06T14:25:51.328Z,101599.91
2023-04-06T14:32:33.567Z,101594.50
2023-04-06T14:39:15.973Z,101587.22
2023-04-06T14:46:02.298Z,101593.09
2023-04-06T14:52:44.469Z,101594.78
2023-04-06T14:59:26.713Z,101584.16
2023-04-06T15:06:16.199Z,101579.31
2023-04-06T15:12:58.456Z,101567.69
2023-04-06T15:19:40.838Z,101561.94
2023-04-06T15:26:22.999Z,101561.53
2023-04-06T15:33:08.094Z,101562.22
2023-04-06T15:39:50.305Z,101562.97
2023-04-06T15:46:32.683Z,101571.63
2023-04-06T15:53:14.842Z,101565.75
2023-04-06T15:59:58.521Z,101559.78
2023-04-06T16:06:41.310Z,101555.38
2023-04-06T16:13:24.361Z,101548.38
2023-04-06T16:20:07.827Z,101552.66
2023-04-06T16:26:50.881Z,101559.56
2023-04-06T16:33:33.166Z,101556.97
2023-04-06T16:40:16.140Z,101552.59
2023-04-06T16:46:58.716Z,101537.78
2023-04-06T16:53:41.029Z,101534.94
2023-04-06T17:00:23.684Z,101531.22
2023-04-06T17:07:06.142Z,101523.22
2023-04-06T17:13:50.368Z,101537.00
2023-04-06T17:20:34.774Z,101533.41
2023-04-06T17:27:16.979Z,101535.94
2023-04-06T17:33:59.900Z,101536.63
2023-04-06T17:40:42.215Z,101542.56
2023-04-06T17:47:25.794Z,101545.06
2023-04-06T17:54:08.001Z,101553.66
2023-04-06T18:00:50.284Z,101544.94
2023-04-06T18:07:32.743Z,101545.72
2023-04-06T18:14:16.133Z,101555.22
2023-04-06T18:20:58.384Z,101543.94
2023-04-06T18:27:40.649Z,101541.38
2023-04-06T18:34:23.240Z,101531.81
2023-04-06T18:41:05.783Z,101532.66
2023-04-06T18:47:47.952Z,101526.56
2023-04-06T18:54:30.316Z,101547.41
2023-04-06T19:01:28.794Z,101548.13
2023-04-06T19:08:12.529Z,101545.41
2023-04-06T19:14:54.716Z,101549.59
2023-04-06T19:21:37.411Z,101549.47
2023-04-06T19:28:19.602Z,101544.13
2023-04-06T19:35:06.294Z,101535.28
2023-04-06T19:41:49.531Z,101521.28
2023-04-06T19:48:33.919Z,101518.69
2023-04-06T19:55:16.276Z,101513.50
2023-04-06T20:01:58.604Z,101517.94
2023-04-06T20:08:44.535Z,101511.13
2023-04-06T20:15:27.070Z,101508.63
2023-04-06T20:22:09.255Z,101503.53
2023-04-06T20:28:51.490Z,101494.06
2023-04-06T20:35:34.994Z,101478.53
2023-04-06T20:42:17.862Z,101486.41
2023-04-06T20:49:00.044Z,101492.59
2023-04-06T20:55:42.888Z,101496.25
2023-04-06T21:02:26.220Z,101487.72
2023-04-06T21:09:08.764Z,101496.56
2023-04-06T21:15:51.743Z,101497.63
2023-04-06T21:22:34.390Z,101484.66
2023-04-06T21:29:16.706Z,101470.88
2023-04-06T21:35:58.881Z,101466.59
2023-04-06T21:42:41.030Z,101459.66
2023-04-06T21:49:23.216Z,101460.53
2023-04-06T21:56:05.764Z,101447.56
2023-04-06T22:02:48.220Z,101436.25
2023-04-06T22:09:31.553Z,101410.22
2023-04-06T22:16:14.727Z,101417.09
2023-04-06T22:22:57.324Z,101411.91
2023-04-06T22:29:39.661Z,101411.09
2023-04-06T22:36:21.963Z,101407.66
2023-04-06T22:43:04.246Z,101405.97
2023-04-06T22:49:46.605Z,101401.63
2023-04-06T22:56:28.770Z,101392.94
2023-04-06T23:03:11.509Z,101399.91
2023-04-06T23:09:53.836Z,101372.16
2023-04-06T23:16:36.506Z,101373.91
2023-04-06T23:23:18.648Z,101375.69
2023-04-06T23:30:00.885Z,101380.03
2023-04-06T23:36:43.169Z,101364.50
2023-04-06T23:43:25.379Z,101367.16
2023-04-06T23:50:08.301Z,101355.00
2023-04-06T23:56:52.022Z,101348.09
